sensor_id;sensor_type;location;lat;lon;timestamp;temperature;humidity
1383;DHT22;685;47.196;11.880;2022-07-29T00:00:27;18.90;99.90
1383;DHT22;685;47.196;11.880;2022-07-29T00:02:54;18.90;99.90
1383;DHT22;685;47.196;11.880;2022-07-29T00:05:21;18.70;99.90
1383;DHT22;685;47.196;11.880;2022-07-29T00:07:49;18.70;99.90
1383;DHT22;685;47.196;11.880;2022-07-29T00:10:16;18.70;99.90
1383;DHT22;685;47.196;11.880;2022-07-29T00:12:43;18.80;99.90
1383;DHT22;685;47.196;11.880;2022-07-29T00:15:10;18.90;99.90
1383;DHT22;685;47.196;11.880;2022-07-29T00:17:37;19.00;99.90
1383;DHT22;685;47.196;11.880;2022-07-29T00:20:06;19.00;99.90
1383;DHT22;685;47.196;11.880;2022-07-29T00:22:33;18.80;99.90
1383;DHT22;685;47.196;11.880;2022-07-29T00:25:05;18.90;99.90
1383;DHT22;685;47.196;11.880;2022-07-29T00:27:33;18.90;99.90
1383;DHT22;685;47.196;11.880;2022-07-29T00:30:00;18.80;99.90
1383;DHT22;685;47.196;11.880;2022-07-29T00:32:27;18.80;99.90
1383;DHT22;685;47.196;11.880;2022-07-29T00:34:54;18.90;99.90
1383;DHT22;685;47.196;11.880;2022-07-29T00:37:38;18.90;99.90
1383;DHT22;685;47.196;11.880;2022-07-29T00:40:08;18.90;99.90
1383;DHT22;685;47.196;11.880;2022-07-29T00:42:42;19.00;99.90
1383;DHT22;685;47.196;11.880;2022-07-29T00:45:09;18.90;99.90
1383;DHT22;685;47.196;11.880;2022-07-29T00:47:36;18.90;99.90
1383;DHT22;685;47.196;11.880;2022-07-29T00:50:04;18.90;99.90
1383;DHT22;685;47.196;11.880;2022-07-29T00:52:32;19.00;99.90
1383;DHT22;685;47.196;11.880;2022-07-29T00:54:59;19.00;99.90
1383;DHT22;685;47.196;11.880;2022-07-29T00:57:28;19.00;99.90
1383;DHT22;685;47.196;11.880;2022-07-29T00:59:55;18.90;99.90
1383;DHT22;685;47.196;11.880;2022-07-29T01:02:22;18.80;99.90
1383;DHT22;685;47.196;11.880;2022-07-29T01:04:49;18.80;99.90
1383;DHT22;685;47.196;11.880;2022-07-29T01:07:17;18.70;99.90
1383;DHT22;685;47.196;11.880;2022-07-29T01:09:46;18.80;99.90
1383;DHT22;685;47.196;11.880;2022-07-29T01:12:16;18.70;99.90
1383;DHT22;685;47.196;11.880;2022-07-29T01:14:46;18.70;99.90
1383;DHT22;685;47.196;11.880;2022-07-29T01:17:20;18.80;99.90
1383;DHT22;685;47.196;11.880;2022-07-29T01:19:53;18.90;99.90
1383;DHT22;685;47.196;11.880;2022-07-29T01:22:40;18.80;99.90
1383;DHT22;685;47.196;11.880;2022-07-29T01:25:31;18.70;99.90
1383;DHT22;685;47.196;11.880;2022-07-29T01:28:13;18.60;99.90
1383;DHT22;685;47.196;11.880;2022-07-29T01:30:46;18.70;99.90
1383;DHT22;685;47.196;11.880;2022-07-29T01:33:17;18.70;99.90
1383;DHT22;685;47.196;11.880;2022-07-29T01:36:02;18.70;99.90
1383;DHT22;685;47.196;11.880;2022-07-29T01:38:35;18.80;99.90
1383;DHT22;685;47.196;11.880;2022-07-29T01:41:06;18.80;99.90
1383;DHT22;685;47.196;11.880;2022-07-29T01:43:40;18.70;99.90
1383;DHT22;685;47.196;11.880;2022-07-29T01:46:14;18.60;99.90
1383;DHT22;685;47.196;11.880;2022-07-29T01:48:47;18.50;99.90
1383;DHT22;685;47.196;11.880;2022-07-29T01:51:16;18.40;99.90
1383;DHT22;685;47.196;11.880;2022-07-29T01:53:50;18.50;99.90
1383;DHT22;685;47.196;11.880;2022-07-29T01:56:20;18.60;99.90
1383;DHT22;685;47.196;11.880;2022-07-29T01:58:49;18.50;99.90
1383;DHT22;685;47.196;11.880;2022-07-29T02:01:20;18.50;99.90
1383;DHT22;685;47.196;11.880;2022-07-29T02:03:49;18.50;99.90
1383;DHT22;685;47.196;11.880;2022-07-29T02:06:19;18.30;99.90
1383;DHT22;685;47.196;11.880;2022-07-29T02:08:49;17.90;99.90
1383;DHT22;685;47.196;11.880;2022-07-29T02:11:17;17.60;99.90
1383;DHT22;685;47.196;11.880;2022-07-29T02:13:45;17.40;99.90
1383;DHT22;685;47.196;11.880;2022-07-29T02:16:14;17.30;99.90
1383;DHT22;685;47.196;11.880;2022-07-29T02:18:45;17.40;99.90
1383;DHT22;685;47.196;11.880;2022-07-29T02:21:19;17.60;99.90
1383;DHT22;685;47.196;11.880;2022-07-29T02:23:48;17.70;99.90
1383;DHT22;685;47.196;11.880;2022-07-29T02:26:18;17.80;99.90
1383;DHT22;685;47.196;11.880;2022-07-29T02:28:46;17.80;99.90
1383;DHT22;685;47.196;11.880;2022-07-29T02:31:14;17.90;99.90
1383;DHT22;685;47.196;11.880;2022-07-29T02:33:45;17.90;99.90
1383;DHT22;685;47.196;11.880;2022-07-29T02:36:13;17.90;99.90
1383;DHT22;685;47.196;11.880;2022-07-29T02:38:43;18.00;99.90
1383;DHT22;685;47.196;11.880;2022-07-29T02:41:26;17.90;99.90
1383;DHT22;685;47.196;11.880;2022-07-29T02:43:57;17.90;99.90
1383;DHT22;685;47.196;11.880;2022-07-29T02:46:29;17.90;99.90
1383;DHT22;685;47.196;11.880;2022-07-29T02:49:04;17.90;99.90
1383;DHT22;685;47.196;11.880;2022-07-29T02:51:41;17.80;99.90
1383;DHT22;685;47.196;11.880;2022-07-29T02:54:11;17.80;99.90
1383;DHT22;685;47.196;11.880;2022-07-29T02:56:41;17.80;99.90
1383;DHT22;685;47.196;11.880;2022-07-29T02:59:11;17.80;99.90
1383;DHT22;685;47.196;11.880;2022-07-29T03:01:42;17.80;99.90
1383;DHT22;685;47.196;11.880;2022-07-29T03:04:13;17.70;99.90
1383;DHT22;685;47.196;11.880;2022-07-29T03:06:42;17.50;99.90
1383;DHT22;685;47.196;11.880;2022-07-29T03:09:10;17.60;99.90
1383;DHT22;685;47.196;11.880;2022-07-29T03:11:39;17.60;99.90
1383;DHT22;685;47.196;11.880;2022-07-29T03:14:06;17.60;99.90
1383;DHT22;685;47.196;11.880;2022-07-29T03:16:33;17.70;99.90
1383;DHT22;685;47.196;11.880;2022-07-29T03:19:03;17.70;99.90
1383;DHT22;685;47.196;11.880;2022-07-29T03:21:32;17.60;99.90
1383;DHT22;685;47.196;11.880;2022-07-29T03:24:00;17.60;99.90
1383;DHT22;685;47.196;11.880;2022-07-29T03:26:27;17.70;99.90
1383;DHT22;685;47.196;11.880;2022-07-29T03:28:54;17.80;99.90
1383;DHT22;685;47.196;11.880;2022-07-29T03:31:21;17.80;99.90
1383;DHT22;685;47.196;11.880;2022-07-29T03:33:48;17.90;99.90
1383;DHT22;685;47.196;11.880;2022-07-29T03:36:15;17.90;99.90
1383;DHT22;685;47.196;11.880;2022-07-29T03:38:45;17.90;99.90
1383;DHT22;685;47.196;11.880;2022-07-29T03:41:14;17.90;99.90
1383;DHT22;685;47.196;11.880;2022-07-29T03:43:42;18.00;99.90
1383;DHT22;685;47.196;11.880;2022-07-29T03:46:10;18.10;99.90
1383;DHT22;685;47.196;11.880;2022-07-29T03:48:42;18.10;99.90
1383;DHT22;685;47.196;11.880;2022-07-29T03:51:13;17.90;99.90
1383;DHT22;685;47.196;11.880;2022-07-29T03:53:40;17.90;99.90
1383;DHT22;685;47.196;11.880;2022-07-29T03:56:10;18.00;99.90
1383;DHT22;685;47.196;11.880;2022-07-29T03:58:42;18.00;99.90
1383;DHT22;685;47.196;11.880;2022-07-29T04:01:11;18.00;99.90
1383;DHT22;685;47.196;11.880;2022-07-29T04:03:39;18.10;99.90
1383;DHT22;685;47.196;11.880;2022-07-29T04:06:06;18.00;99.90
1383;DHT22;685;47.196;11.880;2022-07-29T04:08:34;18.00;99.90
1383;DHT22;685;47.196;11.880;2022-07-29T04:11:01;17.90;99.90
1383;DHT22;685;47.196;11.880;2022-07-29T04:13:29;17.90;99.90
1383;DHT22;685;47.196;11.880;2022-07-29T04:15:57;17.80;99.90
1383;DHT22;685;47.196;11.880;2022-07-29T04:18:24;17.70;99.90
1383;DHT22;685;47.196;11.880;2022-07-29T04:20:51;17.70;99.90
1383;DHT22;685;47.196;11.880;2022-07-29T04:23:18;17.70;99.90
1383;DHT22;685;47.196;11.880;2022-07-29T04:25:45;17.60;99.90
1383;DHT22;685;47.196;11.880;2022-07-29T04:28:12;17.50;99.90
1383;DHT22;685;47.196;11.880;2022-07-29T04:30:40;17.60;99.90
1383;DHT22;685;47.196;11.880;2022-07-29T04:33:08;17.60;99.90
1383;DHT22;685;47.196;11.880;2022-07-29T04:35:36;17.50;99.90
1383;DHT22;685;47.196;11.880;2022-07-29T04:38:04;17.60;99.90
1383;DHT22;685;47.196;11.880;2022-07-29T04:40:32;17.50;99.90
1383;DHT22;685;47.196;11.880;2022-07-29T04:43:00;17.20;99.90
1383;DHT22;685;47.196;11.880;2022-07-29T04:45:27;17.20;99.90
1383;DHT22;685;47.196;11.880;2022-07-29T04:47:56;17.40;99.90
1383;DHT22;685;47.196;11.880;2022-07-29T04:50:23;17.50;99.90
1383;DHT22;685;47.196;11.880;2022-07-29T04:52:50;17.50;99.90
1383;DHT22;685;47.196;11.880;2022-07-29T04:55:17;17.50;99.90
1383;DHT22;685;47.196;11.880;2022-07-29T04:57:44;17.50;99.90
1383;DHT22;685;47.196;11.880;2022-07-29T05:00:11;17.50;99.90
1383;DHT22;685;47.196;11.880;2022-07-29T05:02:38;17.50;99.90
1383;DHT22;685;47.196;11.880;2022-07-29T05:05:08;17.50;99.90
1383;DHT22;685;47.196;11.880;2022-07-29T05:07:35;17.50;99.90
1383;DHT22;685;47.196;11.880;2022-07-29T05:10:03;17.50;99.90
1383;DHT22;685;47.196;11.880;2022-07-29T05:12:30;17.60;99.90
1383;DHT22;685;47.196;11.880;2022-07-29T05:14:57;17.60;99.90
1383;DHT22;685;47.196;11.880;2022-07-29T05:17:24;17.60;99.90
1383;DHT22;685;47.196;11.880;2022-07-29T05:19:51;17.60;99.90
1383;DHT22;685;47.196;11.880;2022-07-29T05:22:20;17.70;99.90
1383;DHT22;685;47.196;11.880;2022-07-29T05:24:47;17.80;99.90
1383;DHT22;685;47.196;11.880;2022-07-29T05:27:14;17.90;99.90
1383;DHT22;685;47.196;11.880;2022-07-29T05:29:41;17.90;99.90
1383;DHT22;685;47.196;11.880;2022-07-29T05:32:08;18.00;99.90
1383;DHT22;685;47.196;11.880;2022-07-29T05:34:35;17.90;99.90
1383;DHT22;685;47.196;11.880;2022-07-29T05:37:02;18.00;99.90
1383;DHT22;685;47.196;11.880;2022-07-29T05:39:31;18.00;99.90
1383;DHT22;685;47.196;11.880;2022-07-29T05:41:58;18.00;99.90
1383;DHT22;685;47.196;11.880;2022-07-29T05:44:25;18.00;99.90
1383;DHT22;685;47.196;11.880;2022-07-29T05:46:52;18.00;99.90
1383;DHT22;685;47.196;11.880;2022-07-29T05:49:19;18.00;99.90
1383;DHT22;685;47.196;11.880;2022-07-29T05:51:46;17.80;99.90
1383;DHT22;685;47.196;11.880;2022-07-29T05:54:14;17.90;99.90
1383;DHT22;685;47.196;11.880;2022-07-29T05:56:43;17.90;99.90
1383;DHT22;685;47.196;11.880;2022-07-29T05:59:10;18.00;99.90
1383;DHT22;685;47.196;11.880;2022-07-29T06:01:37;18.00;99.90
1383;DHT22;685;47.196;11.880;2022-07-29T06:04:05;18.10;99.90
1383;DHT22;685;47.196;11.880;2022-07-29T06:06:32;18.10;99.90
1383;DHT22;685;47.196;11.880;2022-07-29T06:09:00;18.20;99.90
1383;DHT22;685;47.196;11.880;2022-07-29T06:11:27;18.20;99.90
1383;DHT22;685;47.196;11.880;2022-07-29T06:13:55;18.20;99.90
1383;DHT22;685;47.196;11.880;2022-07-29T06:16:22;18.10;99.90
1383;DHT22;685;47.196;11.880;2022-07-29T06:18:49;18.20;99.90
1383;DHT22;685;47.196;11.880;2022-07-29T06:21:16;18.30;99.90
1383;DHT22;685;47.196;11.880;2022-07-29T06:23:44;18.40;99.90
1383;DHT22;685;47.196;11.880;2022-07-29T06:26:11;18.40;99.90
1383;DHT22;685;47.196;11.880;2022-07-29T06:28:38;18.50;99.90
1383;DHT22;685;47.196;11.880;2022-07-29T06:31:07;18.50;99.90
1383;DHT22;685;47.196;11.880;2022-07-29T06:33:34;18.50;99.90
1383;DHT22;685;47.196;11.880;2022-07-29T06:36:04;18.50;99.90
1383;DHT22;685;47.196;11.880;2022-07-29T06:38:31;18.60;99.90
1383;DHT22;685;47.196;11.880;2022-07-29T06:40:59;18.70;99.90
1383;DHT22;685;47.196;11.880;2022-07-29T06:43:31;18.80;99.90
1383;DHT22;685;47.196;11.880;2022-07-29T06:46:03;18.90;99.90
1383;DHT22;685;47.196;11.880;2022-07-29T06:48:32;19.00;99.90
1383;DHT22;685;47.196;11.880;2022-07-29T06:51:00;19.00;99.90
1383;DHT22;685;47.196;11.880;2022-07-29T06:53:27;19.00;99.90
1383;DHT22;685;47.196;11.880;2022-07-29T06:55:55;19.00;99.90
1383;DHT22;685;47.196;11.880;2022-07-29T06:58:23;19.00;99.90
1383;DHT22;685;47.196;11.880;2022-07-29T07:00:51;18.90;99.90
1383;DHT22;685;47.196;11.880;2022-07-29T07:03:18;19.00;99.90
1383;DHT22;685;47.196;11.880;2022-07-29T07:05:47;18.90;99.90
1383;DHT22;685;47.196;11.880;2022-07-29T07:08:14;18.80;99.90
1383;DHT22;685;47.196;11.880;2022-07-29T07:10:42;18.80;99.90
1383;DHT22;685;47.196;11.880;2022-07-29T07:13:09;18.90;99.90
1383;DHT22;685;47.196;11.880;2022-07-29T07:15:37;18.90;99.90
1383;DHT22;685;47.196;11.880;2022-07-29T07:18:04;18.90;99.90
1383;DHT22;685;47.196;11.880;2022-07-29T07:20:32;18.80;99.90
1383;DHT22;685;47.196;11.880;2022-07-29T07:23:00;19.00;99.90
1383;DHT22;685;47.196;11.880;2022-07-29T07:25:28;19.10;99.90
1383;DHT22;685;47.196;11.880;2022-07-29T07:27:55;19.10;99.90
1383;DHT22;685;47.196;11.880;2022-07-29T07:30:22;19.20;99.90
1383;DHT22;685;47.196;11.880;2022-07-29T07:32:49;19.20;99.90
1383;DHT22;685;47.196;11.880;2022-07-29T07:35:16;19.30;99.90
1383;DHT22;685;47.196;11.880;2022-07-29T07:37:43;19.40;99.90
1383;DHT22;685;47.196;11.880;2022-07-29T07:40:12;19.40;99.90
1383;DHT22;685;47.196;11.880;2022-07-29T07:42:39;19.50;99.90
1383;DHT22;685;47.196;11.880;2022-07-29T07:45:08;19.60;99.90
1383;DHT22;685;47.196;11.880;2022-07-29T07:47:36;19.50;99.90
1383;DHT22;685;47.196;11.880;2022-07-29T07:50:04;19.50;99.90
1383;DHT22;685;47.196;11.880;2022-07-29T07:52:31;19.50;99.90
1383;DHT22;685;47.196;11.880;2022-07-29T07:54:59;19.50;99.90
1383;DHT22;685;47.196;11.880;2022-07-29T07:57:27;19.60;99.90
1383;DHT22;685;47.196;11.880;2022-07-29T07:59:54;19.50;99.90
1383;DHT22;685;47.196;11.880;2022-07-29T08:02:21;19.60;99.90
1383;DHT22;685;47.196;11.880;2022-07-29T08:04:48;19.70;99.90
1383;DHT22;685;47.196;11.880;2022-07-29T08:07:15;19.80;99.90
1383;DHT22;685;47.196;11.880;2022-07-29T08:09:42;19.70;99.90
1383;DHT22;685;47.196;11.880;2022-07-29T08:12:09;19.70;99.90
1383;DHT22;685;47.196;11.880;2022-07-29T08:14:38;19.70;99.90
1383;DHT22;685;47.196;11.880;2022-07-29T08:17:05;19.50;99.90
1383;DHT22;685;47.196;11.880;2022-07-29T08:19:32;19.50;99.90
1383;DHT22;685;47.196;11.880;2022-07-29T08:21:59;19.50;99.90
1383;DHT22;685;47.196;11.880;2022-07-29T08:24:26;19.50;99.90
1383;DHT22;685;47.196;11.880;2022-07-29T08:27:18;19.60;99.90
1383;DHT22;685;47.196;11.880;2022-07-29T08:29:47;19.70;99.90
1383;DHT22;685;47.196;11.880;2022-07-29T08:32:14;19.90;99.90
1383;DHT22;685;47.196;11.880;2022-07-29T08:34:41;20.00;99.90
1383;DHT22;685;47.196;11.880;2022-07-29T08:37:10;20.10;99.90
1383;DHT22;685;47.196;11.880;2022-07-29T08:39:37;20.30;99.90
1383;DHT22;685;47.196;11.880;2022-07-29T08:42:04;20.40;99.90
1383;DHT22;685;47.196;11.880;2022-07-29T08:44:33;20.50;99.90
1383;DHT22;685;47.196;11.880;2022-07-29T08:47:02;20.40;99.90
1383;DHT22;685;47.196;11.880;2022-07-29T08:49:30;20.40;99.90
1383;DHT22;685;47.196;11.880;2022-07-29T08:51:58;20.40;99.90
1383;DHT22;685;47.196;11.880;2022-07-29T08:54:27;20.40;99.90
1383;DHT22;685;47.196;11.880;2022-07-29T08:56:54;20.50;99.90
1383;DHT22;685;47.196;11.880;2022-07-29T08:59:22;20.60;99.90
1383;DHT22;685;47.196;11.880;2022-07-29T09:01:53;20.60;99.90
1383;DHT22;685;47.196;11.880;2022-07-29T09:04:25;20.70;99.90
1383;DHT22;685;47.196;11.880;2022-07-29T09:06:54;20.80;99.90
1383;DHT22;685;47.196;11.880;2022-07-29T09:09:23;21.00;99.90
1383;DHT22;685;47.196;11.880;2022-07-29T09:11:50;21.00;99.90
1383;DHT22;685;47.196;11.880;2022-07-29T09:14:18;21.10;99.90
1383;DHT22;685;47.196;11.880;2022-07-29T09:16:48;21.10;99.90
1383;DHT22;685;47.196;11.880;2022-07-29T09:19:24;21.40;99.90
1383;DHT22;685;47.196;11.880;2022-07-29T09:21:52;21.40;99.90
1383;DHT22;685;47.196;11.880;2022-07-29T09:24:40;21.40;99.90
1383;DHT22;685;47.196;11.880;2022-07-29T09:27:21;21.30;99.90
1383;DHT22;685;47.196;11.880;2022-07-29T09:29:56;21.30;99.90
1383;DHT22;685;47.196;11.880;2022-07-29T09:32:24;21.20;99.90
1383;DHT22;685;47.196;11.880;2022-07-29T09:35:13;21.20;99.90
1383;DHT22;685;47.196;11.880;2022-07-29T09:37:40;21.40;99.90
1383;DHT22;685;47.196;11.880;2022-07-29T09:40:12;21.40;99.90
1383;DHT22;685;47.196;11.880;2022-07-29T09:42:40;21.30;99.90
1383;DHT22;685;47.196;11.880;2022-07-29T09:45:08;21.30;99.90
1383;DHT22;685;47.196;11.880;2022-07-29T09:47:43;21.40;99.90
1383;DHT22;685;47.196;11.880;2022-07-29T09:50:16;21.40;99.90
1383;DHT22;685;47.196;11.880;2022-07-29T09:52:46;21.40;99.90
1383;DHT22;685;47.196;11.880;2022-07-29T09:55:14;21.40;99.90
1383;DHT22;685;47.196;11.880;2022-07-29T09:57:41;21.50;99.90
1383;DHT22;685;47.196;11.880;2022-07-29T10:00:09;21.60;99.90
1383;DHT22;685;47.196;11.880;2022-07-29T10:02:39;21.60;99.90
1383;DHT22;685;47.196;11.880;2022-07-29T10:05:18;21.60;99.90
1383;DHT22;685;47.196;11.880;2022-07-29T10:07:47;21.70;99.90
1383;DHT22;685;47.196;11.880;2022-07-29T10:10:20;21.80;99.90
1383;DHT22;685;47.196;11.880;2022-07-29T10:12:53;21.80;99.90
1383;DHT22;685;47.196;11.880;2022-07-29T10:15:22;21.80;99.90
1383;DHT22;685;47.196;11.880;2022-07-29T10:17:50;21.90;99.90
1383;DHT22;685;47.196;11.880;2022-07-29T10:20:19;22.00;99.90
1383;DHT22;685;47.196;11.880;2022-07-29T10:22:47;22.10;99.90
1383;DHT22;685;47.196;11.880;2022-07-29T10:25:15;22.20;99.90
1383;DHT22;685;47.196;11.880;2022-07-29T10:27:42;22.30;99.90
1383;DHT22;685;47.196;11.880;2022-07-29T10:30:13;22.30;99.90
1383;DHT22;685;47.196;11.880;2022-07-29T10:32:51;22.50;99.90
1383;DHT22;685;47.196;11.880;2022-07-29T10:35:43;22.50;99.90
1383;DHT22;685;47.196;11.880;2022-07-29T10:38:27;22.60;99.90
1383;DHT22;685;47.196;11.880;2022-07-29T10:41:07;22.70;99.90
1383;DHT22;685;47.196;11.880;2022-07-29T10:43:58;22.70;99.90
1383;DHT22;685;47.196;11.880;2022-07-29T10:46:27;22.70;99.90
1383;DHT22;685;47.196;11.880;2022-07-29T10:49:11;22.70;99.90
1383;DHT22;685;47.196;11.880;2022-07-29T10:51:57;22.90;99.90
1383;DHT22;685;47.196;11.880;2022-07-29T10:54:46;23.00;99.90
1383;DHT22;685;47.196;11.880;2022-07-29T10:57:16;23.10;99.90
1383;DHT22;685;47.196;11.880;2022-07-29T10:59:46;23.10;99.90
1383;DHT22;685;47.196;11.880;2022-07-29T11:02:45;23.00;99.90
1383;DHT22;685;47.196;11.880;2022-07-29T11:05:18;23.10;99.90
1383;DHT22;685;47.196;11.880;2022-07-29T11:08:18;23.30;99.90
1383;DHT22;685;47.196;11.880;2022-07-29T11:10:47;23.40;99.90
1383;DHT22;685;47.196;11.880;2022-07-29T11:13:45;23.50;99.90
1383;DHT22;685;47.196;11.880;2022-07-29T11:16:13;23.70;99.90
1383;DHT22;685;47.196;11.880;2022-07-29T11:21:41;23.70;99.90
1383;DHT22;685;47.196;11.880;2022-07-29T11:24:13;23.60;99.90
1383;DHT22;685;47.196;11.880;2022-07-29T11:26:41;23.60;99.90
1383;DHT22;685;47.196;11.880;2022-07-29T11:29:17;23.60;99.90
1383;DHT22;685;47.196;11.880;2022-07-29T11:31:46;23.70;99.90
1383;DHT22;685;47.196;11.880;2022-07-29T11:34:27;23.80;99.90
1383;DHT22;685;47.196;11.880;2022-07-29T11:37:15;23.80;99.90
1383;DHT22;685;47.196;11.880;2022-07-29T11:39:45;23.90;99.90
1383;DHT22;685;47.196;11.880;2022-07-29T11:42:41;24.10;99.90
1383;DHT22;685;47.196;11.880;2022-07-29T11:45:11;24.10;99.90
1383;DHT22;685;47.196;11.880;2022-07-29T11:47:40;24.30;99.90
1383;DHT22;685;47.196;11.880;2022-07-29T11:50:11;24.50;99.90
1383;DHT22;685;47.196;11.880;2022-07-29T11:52:39;24.60;99.90
1383;DHT22;685;47.196;11.880;2022-07-29T11:55:13;24.60;99.90
1383;DHT22;685;47.196;11.880;2022-07-29T11:57:48;24.70;99.90
1383;DHT22;685;47.196;11.880;2022-07-29T12:00:31;24.80;99.90
1383;DHT22;685;47.196;11.880;2022-07-29T12:03:01;24.80;99.90
1383;DHT22;685;47.196;11.880;2022-07-29T12:05:37;24.80;99.90
1383;DHT22;685;47.196;11.880;2022-07-29T12:08:06;24.90;99.90
1383;DHT22;685;47.196;11.880;2022-07-29T12:10:34;24.90;99.90
1383;DHT22;685;47.196;11.880;2022-07-29T12:13:01;25.00;99.90
1383;DHT22;685;47.196;11.880;2022-07-29T12:15:29;25.00;99.90
1383;DHT22;685;47.196;11.880;2022-07-29T12:17:56;25.10;99.90
1383;DHT22;685;47.196;11.880;2022-07-29T12:20:25;25.10;99.90
1383;DHT22;685;47.196;11.880;2022-07-29T12:22:52;25.20;99.90
1383;DHT22;685;47.196;11.880;2022-07-29T12:25:21;25.20;99.90
1383;DHT22;685;47.196;11.880;2022-07-29T12:27:57;25.20;99.90
1383;DHT22;685;47.196;11.880;2022-07-29T12:30:36;25.40;99.90
1383;DHT22;685;47.196;11.880;2022-07-29T12:33:20;25.50;99.90
1383;DHT22;685;47.196;11.880;2022-07-29T12:35:50;25.60;99.90
1383;DHT22;685;47.196;11.880;2022-07-29T12:38:19;25.60;99.90
1383;DHT22;685;47.196;11.880;2022-07-29T12:40:47;25.60;99.90
1383;DHT22;685;47.196;11.880;2022-07-29T12:43:16;25.60;99.90
1383;DHT22;685;47.196;11.880;2022-07-29T12:45:46;25.60;99.90
1383;DHT22;685;47.196;11.880;2022-07-29T12:48:13;25.60;99.90
1383;DHT22;685;47.196;11.880;2022-07-29T12:50:55;25.50;99.90
1383;DHT22;685;47.196;11.880;2022-07-29T12:53:22;25.60;99.90
1383;DHT22;685;47.196;11.880;2022-07-29T12:55:51;25.70;99.90
1383;DHT22;685;47.196;11.880;2022-07-29T12:58:31;25.80;99.90
1383;DHT22;685;47.196;11.880;2022-07-29T13:01:08;25.70;99.90
1383;DHT22;685;47.196;11.880;2022-07-29T13:03:48;25.80;99.90
1383;DHT22;685;47.196;11.880;2022-07-29T13:06:36;25.80;99.90
1383;DHT22;685;47.196;11.880;2022-07-29T13:09:09;25.90;99.90
1383;DHT22;685;47.196;11.880;2022-07-29T13:11:38;25.80;99.90
1383;DHT22;685;47.196;11.880;2022-07-29T13:14:08;25.70;99.90
1383;DHT22;685;47.196;11.880;2022-07-29T13:16:38;25.90;99.90
1383;DHT22;685;47.196;11.880;2022-07-29T13:19:33;25.90;99.90
1383;DHT22;685;47.196;11.880;2022-07-29T13:22:00;26.00;99.90
1383;DHT22;685;47.196;11.880;2022-07-29T13:24:27;26.10;99.90
1383;DHT22;685;47.196;11.880;2022-07-29T13:26:54;26.20;99.90
1383;DHT22;685;47.196;11.880;2022-07-29T13:29:23;26.20;99.90
1383;DHT22;685;47.196;11.880;2022-07-29T13:31:52;26.20;99.90
1383;DHT22;685;47.196;11.880;2022-07-29T13:34:19;26.40;99.90
1383;DHT22;685;47.196;11.880;2022-07-29T13:36:47;26.30;99.90
1383;DHT22;685;47.196;11.880;2022-07-29T13:39:14;26.20;99.90
1383;DHT22;685;47.196;11.880;2022-07-29T13:41:41;26.10;99.90
1383;DHT22;685;47.196;11.880;2022-07-29T13:44:08;26.00;99.90
1383;DHT22;685;47.196;11.880;2022-07-29T13:46:37;26.00;99.90
1383;DHT22;685;47.196;11.880;2022-07-29T13:49:04;25.90;99.90
1383;DHT22;685;47.196;11.880;2022-07-29T13:51:31;25.90;99.90
1383;DHT22;685;47.196;11.880;2022-07-29T13:53:58;25.80;99.90
1383;DHT22;685;47.196;11.880;2022-07-29T13:56:24;25.60;99.90
1383;DHT22;685;47.196;11.880;2022-07-29T13:58:52;25.60;99.90
1383;DHT22;685;47.196;11.880;2022-07-29T14:01:18;25.50;99.90
1383;DHT22;685;47.196;11.880;2022-07-29T14:03:47;25.40;99.90
1383;DHT22;685;47.196;11.880;2022-07-29T14:06:14;25.40;99.90
1383;DHT22;685;47.196;11.880;2022-07-29T14:08:41;25.40;99.90
1383;DHT22;685;47.196;11.880;2022-07-29T14:11:08;25.40;99.90
1383;DHT22;685;47.196;11.880;2022-07-29T14:13:35;25.30;99.90
1383;DHT22;685;47.196;11.880;2022-07-29T14:16:02;25.20;99.90
1383;DHT22;685;47.196;11.880;2022-07-29T14:18:29;25.20;99.90
1383;DHT22;685;47.196;11.880;2022-07-29T14:20:58;25.10;99.90
1383;DHT22;685;47.196;11.880;2022-07-29T14:23:25;25.00;99.90
1383;DHT22;685;47.196;11.880;2022-07-29T14:25:52;24.90;99.90
1383;DHT22;685;47.196;11.880;2022-07-29T14:28:19;24.80;99.90
1383;DHT22;685;47.196;11.880;2022-07-29T14:30:46;24.80;99.90
1383;DHT22;685;47.196;11.880;2022-07-29T14:33:13;24.80;99.90
1383;DHT22;685;47.196;11.880;2022-07-29T14:35:40;24.70;99.90
1383;DHT22;685;47.196;11.880;2022-07-29T14:38:09;24.60;99.90
1383;DHT22;685;47.196;11.880;2022-07-29T14:40:36;24.50;99.90
1383;DHT22;685;47.196;11.880;2022-07-29T14:43:03;24.50;99.90
1383;DHT22;685;47.196;11.880;2022-07-29T14:45:30;24.40;99.90
1383;DHT22;685;47.196;11.880;2022-07-29T14:47:57;24.40;99.90
1383;DHT22;685;47.196;11.880;2022-07-29T14:50:25;24.40;99.90
1383;DHT22;685;47.196;11.880;2022-07-29T14:52:53;24.40;99.90
1383;DHT22;685;47.196;11.880;2022-07-29T14:55:21;24.30;99.90
1383;DHT22;685;47.196;11.880;2022-07-29T14:57:48;24.30;99.90
1383;DHT22;685;47.196;11.880;2022-07-29T15:00:17;24.30;99.90
1383;DHT22;685;47.196;11.880;2022-07-29T15:02:44;24.20;99.90
1383;DHT22;685;47.196;11.880;2022-07-29T15:05:11;24.20;99.90
1383;DHT22;685;47.196;11.880;2022-07-29T15:07:38;24.10;99.90
1383;DHT22;685;47.196;11.880;2022-07-29T15:10:06;24.10;99.90
1383;DHT22;685;47.196;11.880;2022-07-29T15:12:34;24.10;99.90
1383;DHT22;685;47.196;11.880;2022-07-29T15:15:01;24.10;99.90
1383;DHT22;685;47.196;11.880;2022-07-29T15:17:28;24.00;99.90
1383;DHT22;685;47.196;11.880;2022-07-29T15:19:55;23.90;99.90
1383;DHT22;685;47.196;11.880;2022-07-29T15:22:22;23.90;99.90
1383;DHT22;685;47.196;11.880;2022-07-29T15:24:49;23.80;99.90
1383;DHT22;685;47.196;11.880;2022-07-29T15:27:16;23.80;99.90
1383;DHT22;685;47.196;11.880;2022-07-29T15:29:45;23.70;99.90
1383;DHT22;685;47.196;11.880;2022-07-29T15:32:12;23.60;99.90
1383;DHT22;685;47.196;11.880;2022-07-29T15:34:39;23.40;99.90
1383;DHT22;685;47.196;11.880;2022-07-29T15:37:06;23.30;99.90
1383;DHT22;685;47.196;11.880;2022-07-29T15:39:33;23.30;99.90
1383;DHT22;685;47.196;11.880;2022-07-29T15:44:28;23.30;99.90
1383;DHT22;685;47.196;11.880;2022-07-29T15:46:56;23.40;99.90
1383;DHT22;685;47.196;11.880;2022-07-29T15:49:30;23.20;99.90
1383;DHT22;685;47.196;11.880;2022-07-29T15:51:58;23.10;99.90
1383;DHT22;685;47.196;11.880;2022-07-29T15:54:25;23.00;99.90
1383;DHT22;685;47.196;11.880;2022-07-29T15:56:53;23.00;99.90
1383;DHT22;685;47.196;11.880;2022-07-29T15:59:20;22.90;99.90
1383;DHT22;685;47.196;11.880;2022-07-29T16:01:47;23.00;99.90
1383;DHT22;685;47.196;11.880;2022-07-29T16:04:15;22.90;99.90
1383;DHT22;685;47.196;11.880;2022-07-29T16:06:43;22.80;99.90
1383;DHT22;685;47.196;11.880;2022-07-29T16:09:11;22.80;99.90
1383;DHT22;685;47.196;11.880;2022-07-29T16:11:38;22.70;99.90
1383;DHT22;685;47.196;11.880;2022-07-29T16:14:05;22.70;99.90
1383;DHT22;685;47.196;11.880;2022-07-29T16:16:33;22.40;99.90
1383;DHT22;685;47.196;11.880;2022-07-29T16:19:00;22.20;99.90
1383;DHT22;685;47.196;11.880;2022-07-29T16:21:28;21.90;99.90
1383;DHT22;685;47.196;11.880;2022-07-29T16:23:56;21.80;99.90